Time;durP1;ratioP1;P1;durP2;ratioP2;P2;SDS_P1;SDS_P2;PMS_P1;PMS_P2;Temp;Humidity;BMP_temperature;BMP_pressure;BME280_temperature;BME280_humidity;BME280_pressure;Samples;Min_cycle;Max_cycle;Signal;HPM_P1;HPM_P2
2023/06/11 00:02:11;;;;;;;;;21.00;19.40;;;;;20.31;52.23;99865.84;5095981;28;9036;-60
2023/06/11 00:04:39;;;;;;;;;23.40;23.00;;;;;20.26;52.56;99865.56;5095578;28;8814;-61
2023/06/11 00:07:07;;;;;;;;;22.20;20.40;;;;;20.21;52.41;99869.84;5095358;28;8845;-61
2023/06/11 00:09:36;;;;;;;;;21.00;19.80;;;;;20.14;53.12;99867.06;5094812;28;8825;-61
2023/06/11 00:12:04;;;;;;;;;21.00;20.40;;;;;20.08;53.15;99865.06;5094955;28;8849;-61
2023/06/11 00:14:32;;;;;;;;;20.80;19.40;;;;;20.05;53.14;99860.06;5094805;28;8833;-61
2023/06/11 00:17:00;;;;;;;;;20.20;18.80;;;;;20.05;53.24;99862.75;5095042;28;8818;-61
2023/06/11 00:19:30;;;;;;;;;23.60;22.00;;;;;20.08;52.75;99864.22;5095544;28;8845;-60
2023/06/11 00:21:58;;;;;;;;;20.80;18.00;;;;;20.11;53.00;99866.56;5094958;28;8840;-61
2023/06/11 00:24:26;;;;;;;;;21.80;21.20;;;;;20.12;53.22;99863.69;5095241;28;8822;-61
2023/06/11 00:26:55;;;;;;;;;20.60;19.20;;;;;20.12;52.99;99869.09;5095533;28;8838;-59
2023/06/11 00:29:22;;;;;;;;;19.20;19.20;;;;;20.04;53.25;99868.31;5094225;28;8841;-60
2023/06/11 00:31:50;;;;;;;;;18.60;17.40;;;;;19.94;53.01;99868.56;5095018;28;8911;-58
2023/06/11 00:34:18;;;;;;;;;24.60;22.80;;;;;19.91;53.61;99870.78;5095441;28;8829;-59
2023/06/11 00:36:46;;;;;;;;;20.80;20.40;;;;;19.84;53.54;99873.38;5095171;28;8818;-60
2023/06/11 00:39:14;;;;;;;;;14.40;14.40;;;;;19.76;53.43;99873.47;5095243;28;8974;-61
2023/06/11 00:41:45;;;;;;;;;24.40;21.80;;;;;19.68;53.47;99860.03;5095040;28;9504;-61
2023/06/11 00:44:17;;;;;;;;;18.00;16.40;;;;;19.61;53.85;99863.63;5095837;28;8818;-59
2023/06/11 00:46:45;;;;;;;;;16.80;15.40;;;;;19.54;53.65;99868.06;5094378;28;8818;-61
2023/06/11 00:49:13;;;;;;;;;17.00;17.00;;;;;19.45;54.17;99864.59;5094754;28;8830;-60
2023/06/11 00:51:41;;;;;;;;;16.80;16.80;;;;;19.38;53.93;99871.75;5094144;28;8866;-61
2023/06/11 00:54:12;;;;;;;;;19.60;17.80;;;;;19.30;54.34;99869.09;5094964;28;9471;-61
2023/06/11 00:56:41;;;;;;;;;20.60;19.60;;;;;19.21;54.63;99872.84;5094614;28;9328;-60
2023/06/11 00:59:08;;;;;;;;;20.00;18.40;;;;;19.17;54.62;99873.34;5095255;28;8944;-60
2023/06/11 01:01:41;;;;;;;;;22.60;21.00;;;;;19.11;54.40;99865.97;5096470;28;8808;-61
2023/06/11 01:04:10;;;;;;;;;22.75;21.25;;;;;19.06;54.83;99860.25;5099477;28;8869;-59
2023/06/11 01:06:38;;;;;;;;;17.50;17.50;;;;;19.00;54.57;99869.06;5099661;28;8830;-60
2023/06/11 01:09:05;;;;;;;;;19.25;18.00;;;;;18.94;55.15;99864.38;5099560;28;8818;-61
2023/06/11 01:11:35;;;;;;;;;19.40;19.20;;;;;18.89;55.04;99867.59;5099627;28;8832;-60
2023/06/11 01:14:04;;;;;;;;;16.75;15.75;;;;;18.83;54.82;99867.47;5099763;28;8826;-61
2023/06/11 01:16:34;;;;;;;;;25.00;23.00;;;;;18.76;55.07;99866.50;5099136;28;8807;-60
2023/06/11 01:19:03;;;;;;;;;25.25;24.00;;;;;18.71;55.50;99869.72;5099272;28;8859;-61
2023/06/11 01:21:33;;;;;;;;;20.80;17.40;;;;;18.68;55.46;99870.06;5098836;28;8806;-61
2023/06/11 01:24:00;;;;;;;;;20.40;18.20;;;;;18.66;55.63;99877.50;5098773;28;8848;-61
2023/06/11 01:26:28;;;;;;;;;19.00;19.00;;;;;18.64;54.91;99884.06;5098571;28;8952;-59
2023/06/11 01:28:56;;;;;;;;;17.25;17.00;;;;;18.59;55.41;99881.91;5098022;28;9512;-60
2023/06/11 01:31:23;;;;;;;;;22.00;19.00;;;;;18.53;55.67;99877.19;5098261;28;8841;-61
2023/06/11 01:33:51;;;;;;;;;17.75;15.75;;;;;18.48;55.66;99873.34;5098396;28;8864;-61
2023/06/11 01:36:19;;;;;;;;;16.50;16.25;;;;;18.44;55.51;99883.63;5098419;28;8960;-59
2023/06/11 01:38:51;;;;;;;;;21.00;18.75;;;;;18.40;56.07;99876.94;5098715;28;9542;-60
2023/06/11 01:41:19;;;;;;;;;21.75;20.75;;;;;18.37;55.96;99877.25;5098501;28;8830;-61
2023/06/11 01:43:47;;;;;;;;;26.75;25.25;;;;;18.39;56.05;99880.63;5099851;28;8939;-60
2023/06/11 01:46:14;;;;;;;;;17.00;16.50;;;;;18.39;55.57;99874.38;5098821;28;8822;-59
2023/06/11 01:48:42;;;;;;;;;18.00;17.75;;;;;18.36;55.60;99870.19;5098680;28;8956;-60
2023/06/11 01:51:13;;;;;;;;;24.50;22.25;;;;;18.31;55.88;99872.56;5098360;28;8802;-60
2023/06/11 01:53:41;;;;;;;;;20.00;20.00;;;;;18.26;55.94;99874.91;5099144;28;8814;-59
2023/06/11 01:56:09;;;;;;;;;16.00;13.50;;;;;18.20;56.13;99870.19;5098966;28;8846;-60
2023/06/11 01:58:38;;;;;;;;;21.25;21.25;;;;;18.15;56.12;99869.84;5098664;28;8833;-58
2023/06/11 02:01:08;;;;;;;;;19.75;18.75;;;;;18.12;56.54;99863.97;5098586;28;8818;-60
2023/06/11 02:03:35;;;;;;;;;19.00;18.25;;;;;18.08;56.55;99866.16;5098423;28;8976;-60
2023/06/11 02:06:03;;;;;;;;;24.50;21.25;;;;;18.05;56.56;99866.53;5098296;28;8829;-60
2023/06/11 02:08:31;;;;;;;;;22.50;21.50;;;;;18.02;56.62;99868.72;5097808;28;8825;-60
2023/06/11 02:10:59;;;;;;;;;20.75;19.00;;;;;17.98;56.79;99864.69;5098375;28;8837;-59
2023/06/11 02:13:30;;;;;;;;;21.50;19.25;;;;;17.93;56.53;99875.13;5096923;28;8841;-60
2023/06/11 02:15:58;;;;;;;;;22.75;21.50;;;;;17.91;55.99;99875.28;5098397;28;8822;-59
2023/06/11 02:18:26;;;;;;;;;15.25;13.25;;;;;17.87;56.90;99873.97;5098308;28;8805;-60
2023/06/11 02:20:54;;;;;;;;;26.25;25.00;;;;;17.85;56.67;99873.28;5097882;28;8860;-60
2023/06/11 02:23:22;;;;;;;;;13.75;12.75;;;;;17.85;56.39;99873.28;5098112;28;8856;-60
2023/06/11 02:25:50;;;;;;;;;23.00;22.00;;;;;17.85;56.31;99875.13;5098371;28;8826;-59
2023/06/11 02:28:17;;;;;;;;;16.00;16.00;;;;;17.84;56.82;99876.16;5098451;28;8868;-58
2023/06/11 02:30:45;;;;;;;;;21.25;19.50;;;;;17.83;56.69;99874.47;5098141;28;8830;-59
2023/06/11 02:33:13;;;;;;;;;16.25;16.00;;;;;17.84;56.26;99878.84;5098565;28;8853;-60
2023/06/11 02:35:40;;;;;;;;;19.00;17.25;;;;;17.82;56.66;99880.84;5098074;28;8841;-60
2023/06/11 02:38:08;;;;;;;;;23.00;20.00;;;;;17.82;56.77;99880.84;5098174;28;8818;-59
2023/06/11 02:40:36;;;;;;;;;19.25;18.25;;;;;17.81;56.69;99880.03;5098249;28;8826;-58
2023/06/11 02:43:05;;;;;;;;;22.50;21.25;;;;;17.78;56.59;99885.72;5099015;28;8837;-60
2023/06/11 02:45:32;;;;;;;;;18.50;17.75;;;;;17.76;56.85;99885.06;5097892;28;8818;-59
2023/06/11 02:48:00;;;;;;;;;22.00;21.00;;;;;17.74;56.61;99889.78;5097601;28;8829;-60
2023/06/11 02:50:28;;;;;;;;;23.25;23.25;;;;;17.71;56.78;99892.84;5097991;28;8843;-58
2023/06/11 02:52:56;;;;;;;;;28.50;22.50;;;;;17.69;56.32;99886.75;5097421;28;8864;-60
2023/06/11 02:55:24;;;;;;;;;20.25;19.75;;;;;17.66;57.04;99888.94;5097700;28;8848;-58
2023/06/11 02:57:52;;;;;;;;;24.25;22.25;;;;;17.63;56.69;99886.59;5097742;28;9506;-60
2023/06/11 03:00:19;;;;;;;;;20.25;16.75;;;;;17.59;57.23;99891.47;5097537;28;8814;-60
2023/06/11 03:02:47;;;;;;;;;24.25;22.25;;;;;17.58;57.00;99886.25;5097393;28;8972;-60
2023/06/11 03:05:15;;;;;;;;;17.50;16.75;;;;;17.56;56.78;99881.03;5097719;28;8822;-60
2023/06/11 03:07:43;;;;;;;;;18.25;17.50;;;;;17.53;57.39;99881.38;5097591;28;8834;-58
2023/06/11 03:10:11;;;;;;;;;21.75;20.50;;;;;17.50;57.12;99891.63;5097919;28;9522;-59
2023/06/11 03:12:38;;;;;;;;;23.00;21.00;;;;;17.47;56.89;99895.50;5097085;28;8818;-59
2023/06/11 03:15:06;;;;;;;;;20.75;18.50;;;;;17.45;56.87;99889.44;5097468;28;8868;-60
2023/06/11 03:17:34;;;;;;;;;18.00;18.00;;;;;17.42;57.22;99891.63;5097387;28;8829;-58
2023/06/11 03:20:02;;;;;;;;;21.00;18.75;;;;;17.40;57.44;99897.16;5096206;28;9665;-60
2023/06/11 03:22:29;;;;;;;;;22.75;22.25;;;;;17.39;57.48;99892.78;5095632;28;8814;-60
2023/06/11 03:24:57;;;;;;;;;22.50;22.50;;;;;17.38;57.69;99891.09;5096123;28;8822;-60
2023/06/11 03:27:25;;;;;;;;;19.25;18.50;;;;;17.38;57.16;99898.38;5096045;28;8830;-60
2023/06/11 03:29:53;;;;;;;;;20.50;20.50;;;;;17.37;57.02;99894.81;5096497;28;8837;-60
2023/06/11 03:32:20;;;;;;;;;18.00;17.00;;;;;17.38;57.36;99898.38;5096039;28;8830;-59
2023/06/11 03:34:51;;;;;;;;;19.00;19.00;;;;;17.37;57.09;99897.50;5097211;28;8855;-60
2023/06/11 03:37:18;;;;;;;;;20.00;18.75;;;;;17.38;57.56;99887.59;5096813;28;8817;-60
2023/06/11 03:39:46;;;;;;;;;23.50;21.00;;;;;17.39;57.45;99894.66;5096790;28;8814;-60
2023/06/11 03:42:14;;;;;;;;;22.50;21.50;;;;;17.40;57.34;99891.78;5096786;28;8845;-59
2023/06/11 03:44:42;;;;;;;;;24.00;21.75;;;;;17.41;57.32;99889.94;5098372;28;8822;-59
2023/06/11 03:47:09;;;;;;;;;23.00;21.00;;;;;17.45;57.25;99885.91;5096733;28;8826;-60
2023/06/11 03:49:37;;;;;;;;;13.00;12.00;;;;;17.47;57.20;99895.50;5096922;28;8902;-60
2023/06/11 03:52:08;;;;;;;;;21.00;18.00;;;;;17.51;56.71;99898.69;5095969;28;8832;-59
2023/06/11 03:54:35;;;;;;;;;17.50;16.50;;;;;17.54;56.80;99901.06;5096160;28;8840;-58
2023/06/11 03:57:04;;;;;;;;;28.00;23.25;;;;;17.56;56.67;99891.81;5097019;28;8822;-60
2023/06/11 03:59:31;;;;;;;;;21.25;18.75;;;;;17.60;56.89;99889.63;5095784;28;8826;-59
2023/06/11 04:01:59;;;;;;;;;21.50;20.25;;;;;17.65;56.96;99895.34;5096331;28;8933;-61
2023/06/11 04:04:26;;;;;;;;;23.00;21.50;;;;;17.70;56.89;99901.91;5096318;28;8829;-61
2023/06/11 04:06:54;;;;;;;;;24.25;23.00;;;;;17.73;56.77;99895.34;5096252;28;8826;-60
2023/06/11 04:09:23;;;;;;;;;22.50;21.50;;;;;17.80;56.52;99902.59;5096829;28;8838;-60
2023/06/11 04:11:51;;;;;;;;;30.25;27.25;;;;;17.85;56.05;99900.22;5096846;28;8853;-61
2023/06/11 04:14:18;;;;;;;;;23.25;22.75;;;;;17.93;56.66;99897.50;5095949;28;8830;-60
2023/06/11 04:16:46;;;;;;;;;24.75;23.50;;;;;18.00;55.76;99909.31;5095808;28;8834;-60
2023/06/11 04:19:14;;;;;;;;;27.00;25.00;;;;;18.07;55.87;99902.22;5096102;28;8822;-61
2023/06/11 04:21:41;;;;;;;;;18.00;18.00;;;;;18.14;56.09;99897.00;5095412;28;8833;-58
2023/06/11 04:24:09;;;;;;;;;24.00;23.75;;;;;18.21;55.56;99896.13;5096235;28;8880;-59
2023/06/11 04:26:37;;;;;;;;;27.00;24.00;;;;;18.28;55.77;99894.44;5095988;28;8826;-59
2023/06/11 04:29:05;;;;;;;;;23.50;21.25;;;;;18.35;55.44;99898.16;5095528;28;8818;-60
2023/06/11 04:31:33;;;;;;;;;30.00;26.75;;;;;18.43;55.04;99900.00;5095436;28;8952;-59
2023/06/11 04:34:02;;;;;;;;;24.25;21.50;;;;;18.51;55.54;99895.41;5095855;28;8996;-61
2023/06/11 04:36:30;;;;;;;;;23.00;21.50;;;;;18.58;55.25;99899.09;5095138;28;8856;-61
2023/06/11 04:39:02;;;;;;;;;23.75;23.50;;;;;18.64;55.12;99894.88;5096263;28;8825;-61
2023/06/11 04:41:31;;;;;;;;;23.25;21.00;;;;;18.72;55.39;99902.94;5095959;28;8844;-60
2023/06/11 04:44:00;;;;;;;;;23.75;21.75;;;;;18.80;54.95;99894.78;5097367;28;8840;-59
2023/06/11 04:46:29;;;;;;;;;16.50;16.00;;;;;18.88;54.47;99903.72;5095625;28;8822;-59
2023/06/11 04:48:57;;;;;;;;;27.50;22.00;;;;;18.97;54.44;99897.25;5095118;28;8964;-61
2023/06/11 04:51:25;;;;;;;;;24.75;22.00;;;;;19.07;54.65;99899.75;5095720;28;8830;-61
2023/06/11 04:53:54;;;;;;;;;18.00;17.00;;;;;19.16;53.96;99894.13;5095394;28;8833;-61
2023/06/11 04:56:21;;;;;;;;;23.00;20.75;;;;;19.25;54.14;99894.94;5095897;28;8826;-59
2023/06/11 04:58:50;;;;;;;;;26.75;25.00;;;;;19.32;53.86;99893.19;5095771;28;8822;-60
2023/06/11 05:01:18;;;;;;;;;16.75;15.25;;;;;19.40;54.06;99887.75;5095699;28;8830;-61
2023/06/11 05:03:46;;;;;;;;;22.60;20.80;;;;;19.49;53.59;99895.63;5095563;28;8846;-60
2023/06/11 05:06:21;;;;;;;;;19.40;17.00;;;;;19.61;54.08;99894.19;5095321;28;8914;-61
2023/06/11 05:08:50;;;;;;;;;22.80;22.00;;;;;19.73;53.35;99890.03;5095334;28;8810;-61
2023/06/11 05:11:17;;;;;;;;;19.60;19.20;;;;;19.84;53.18;99900.41;5095882;28;8821;-60
2023/06/11 05:13:45;;;;;;;;;18.40;15.20;;;;;20.01;53.17;99890.31;5095428;28;8822;-61
2023/06/11 05:16:14;;;;;;;;;13.20;11.40;;;;;20.14;53.12;99899.50;5095845;28;8876;-61
2023/06/11 05:18:41;;;;;;;;;20.80;18.80;;;;;20.31;52.92;99902.91;5095725;28;8872;-58
2023/06/11 05:21:09;;;;;;;;;18.00;18.00;;;;;20.48;52.31;99898.97;5094861;28;8857;-61
2023/06/11 05:23:39;;;;;;;;;18.80;18.20;;;;;20.67;52.04;99901.13;5095011;28;8830;-61
2023/06/11 05:26:12;;;;;;;;;17.20;15.80;;;;;20.84;52.14;99890.75;5095633;28;8818;-60
2023/06/11 05:28:40;;;;;;;;;15.40;14.40;;;;;21.05;51.68;99892.72;5095399;28;8948;-61
2023/06/11 05:31:09;;;;;;;;;18.20;17.80;;;;;21.24;51.09;99890.25;5095228;28;8845;-61
2023/06/11 05:33:37;;;;;;;;;18.40;15.20;;;;;21.42;50.96;99887.91;5095481;28;8838;-61
2023/06/11 05:36:06;;;;;;;;;20.60;19.80;;;;;21.59;50.77;99885.81;5094554;28;8908;-60
2023/06/11 05:38:33;;;;;;;;;20.20;20.00;;;;;21.76;51.00;99884.53;5095508;28;8829;-61
2023/06/11 05:41:02;;;;;;;;;20.40;19.60;;;;;21.90;50.30;99883.63;5095413;28;8826;-61
2023/06/11 05:43:30;;;;;;;;;16.00;13.60;;;;;22.03;50.21;99881.84;5096211;28;8907;-61
2023/06/11 05:45:57;;;;;;;;;15.60;15.60;;;;;22.19;50.40;99888.88;5095755;28;8821;-61
2023/06/11 05:48:26;;;;;;;;;20.40;20.40;;;;;22.33;50.36;99882.53;5097955;28;8826;-60
2023/06/11 05:50:54;;;;;;;;;18.00;17.20;;;;;22.47;49.88;99889.75;5097938;28;8854;-60
2023/06/11 05:53:22;;;;;;;;;21.00;18.20;;;;;22.57;49.82;99882.94;5097899;28;9575;-59
2023/06/11 05:55:49;;;;;;;;;19.60;18.60;;;;;22.69;49.87;99891.34;5098908;28;8833;-59
2023/06/11 05:58:22;;;;;;;;;20.80;19.60;;;;;22.79;49.66;99884.50;5099071;28;9574;-59
2023/06/11 06:00:51;;;;;;;;;17.60;16.60;;;;;22.89;49.76;99892.28;5099256;28;8833;-61
2023/06/11 06:03:19;;;;;;;;;18.60;18.60;;;;;23.01;49.49;99894.22;5098921;28;8875;-60
2023/06/11 06:05:47;;;;;;;;;19.80;18.80;;;;;23.14;49.21;99901.59;5097877;28;8818;-59
2023/06/11 06:08:15;;;;;;;;;19.40;18.20;;;;;23.25;49.53;99893.72;5097535;28;8834;-59
2023/06/11 06:10:42;;;;;;;;;22.80;19.20;;;;;23.35;49.28;99896.03;5097579;28;8857;-59
2023/06/11 06:13:10;;;;;;;;;21.60;18.60;;;;;23.43;49.06;99895.88;5098435;28;9666;-62
2023/06/11 06:15:38;;;;;;;;;17.60;16.80;;;;;23.50;49.24;99902.13;5097949;28;9515;-61
2023/06/11 06:18:05;;;;;;;;;19.80;18.20;;;;;23.58;48.57;99908.25;5098376;28;8910;-61
2023/06/11 06:20:33;;;;;;;;;21.00;20.20;;;;;23.67;48.83;99906.19;5098449;28;8822;-60
2023/06/11 06:23:01;;;;;;;;;19.00;18.20;;;;;23.76;49.08;99911.19;5098137;28;8960;-61
2023/06/11 06:25:31;;;;;;;;;18.00;17.40;;;;;23.86;48.28;99906.22;5098736;28;8825;-59
2023/06/11 06:27:59;;;;;;;;;17.00;15.40;;;;;23.99;48.54;99902.69;5098348;28;8848;-59
2023/06/11 06:30:26;;;;;;;;;18.00;18.00;;;;;24.09;48.23;99911.25;5098156;28;9612;-61
2023/06/11 06:32:54;;;;;;;;;15.60;14.40;;;;;24.20;48.06;99903.28;5098034;28;8838;-61
2023/06/11 06:35:25;;;;;;;;;19.00;17.40;;;;;24.33;48.08;99905.16;5096891;28;8956;-60
2023/06/11 06:37:52;;;;;;;;;19.40;18.80;;;;;24.43;48.22;99905.59;5096979;28;8852;-61
2023/06/11 06:40:20;;;;;;;;;19.40;19.00;;;;;24.53;47.75;99908.72;5097951;28;8821;-59
2023/06/11 06:42:48;;;;;;;;;21.20;19.20;;;;;24.64;47.82;99919.84;5098609;28;8830;-59
2023/06/11 06:45:16;;;;;;;;;16.40;16.00;;;;;24.73;47.86;99920.47;5097317;28;8948;-60
2023/06/11 06:47:43;;;;;;;;;19.40;17.20;;;;;24.82;47.48;99917.31;5097972;28;8903;-61
2023/06/11 06:50:12;;;;;;;;;17.60;15.40;;;;;24.91;47.57;99924.19;5096938;28;8850;-59
2023/06/11 06:52:40;;;;;;;;;19.80;19.80;;;;;24.99;47.60;99928.53;5096434;28;9614;-61
2023/06/11 06:55:07;;;;;;;;;20.00;16.80;;;;;25.12;47.59;99925.78;5096911;28;8856;-59
2023/06/11 06:57:35;;;;;;;;;20.20;19.20;;;;;25.27;47.26;99929.97;5096457;28;8821;-59
2023/06/11 07:00:04;;;;;;;;;16.00;16.00;;;;;25.41;47.08;99931.56;5096930;28;8842;-60
2023/06/11 07:02:32;;;;;;;;;16.80;16.20;;;;;25.55;46.62;99930.44;5097279;28;8846;-61
2023/06/11 07:05:00;;;;;;;;;14.60;12.80;;;;;25.66;46.30;99930.56;5097161;28;8945;-58
2023/06/11 07:07:28;;;;;;;;;19.20;16.80;;;;;25.79;46.30;99935.97;5095493;28;8817;-59
2023/06/11 07:09:55;;;;;;;;;17.60;17.20;;;;;25.89;46.16;99930.88;5097161;28;8830;-59
2023/06/11 07:12:23;;;;;;;;;16.40;16.40;;;;;26.00;45.92;99929.34;5097527;28;8944;-62
2023/06/11 07:14:54;;;;;;;;;14.20;13.60;;;;;26.07;46.33;99932.84;5097252;28;9729;-61
2023/06/11 07:17:25;;;;;;;;;17.00;16.60;;;;;26.10;45.69;99927.78;5096897;28;9482;-61
2023/06/11 07:19:53;;;;;;;;;13.80;13.40;;;;;26.17;45.82;99934.03;5096676;28;9503;-61
2023/06/11 07:22:21;;;;;;;;;13.00;13.00;;;;;26.22;45.67;99941.56;5097263;28;8810;-61
2023/06/11 07:24:49;;;;;;;;;16.40;14.60;;;;;26.28;45.64;99937.94;5097004;28;8918;-60
2023/06/11 07:27:19;;;;;;;;;18.80;17.80;;;;;26.34;45.55;99940.59;5097358;28;8834;-61
2023/06/11 07:29:47;;;;;;;;;11.20;11.00;;;;;26.40;45.52;99934.25;5097005;28;8834;-60
2023/06/11 07:32:17;;;;;;;;;16.20;14.80;;;;;26.50;45.38;99934.56;5096777;28;9515;-59
2023/06/11 07:34:45;;;;;;;;;17.80;15.20;;;;;26.57;45.24;99937.31;5096479;28;9538;-59
2023/06/11 07:37:12;;;;;;;;;16.20;15.20;;;;;26.66;44.93;99941.41;5096333;28;9557;-59
2023/06/11 07:39:41;;;;;;;;;17.00;15.40;;;;;26.72;44.57;99938.59;5096538;28;8830;-62
2023/06/11 07:42:08;;;;;;;;;16.00;15.00;;;;;26.77;44.60;99940.66;5095765;28;8814;-59
2023/06/11 07:44:36;;;;;;;;;17.20;16.20;;;;;26.85;44.26;99932.19;5097386;28;8968;-60
2023/06/11 07:47:04;;;;;;;;;19.60;17.80;;;;;26.91;44.04;99931.25;5096087;28;8833;-60
2023/06/11 07:49:32;;;;;;;;;17.60;17.20;;;;;26.96;44.06;99939.63;5096080;28;8860;-61
2023/06/11 07:52:00;;;;;;;;;14.20;14.00;;;;;27.02;43.88;99936.00;5096206;28;9484;-59
2023/06/11 07:54:28;;;;;;;;;14.40;14.20;;;;;27.09;44.23;99939.47;5096246;28;8866;-61
2023/06/11 07:56:56;;;;;;;;;16.80;16.20;;;;;27.13;43.73;99940.69;5096364;28;8940;-61
2023/06/11 07:59:24;;;;;;;;;15.00;15.00;;;;;27.18;43.60;99940.88;5095203;28;8818;-59
2023/06/11 08:01:52;;;;;;;;;15.80;14.60;;;;;27.22;44.02;99934.72;5095651;28;8855;-62
2023/06/11 08:04:20;;;;;;;;;16.00;14.20;;;;;27.26;44.10;99941.41;5095446;28;8814;-61
2023/06/11 08:06:47;;;;;;;;;13.00;13.00;;;;;27.32;43.58;99945.13;5095552;28;8822;-61
2023/06/11 08:09:15;;;;;;;;;16.00;15.20;;;;;27.38;43.67;99945.03;5095537;28;8817;-59
2023/06/11 08:11:43;;;;;;;;;17.20;16.00;;;;;27.41;43.29;99941.84;5094528;28;8871;-59
2023/06/11 08:14:11;;;;;;;;;16.80;16.40;;;;;27.46;42.98;99947.44;5095008;28;8902;-60
2023/06/11 08:16:39;;;;;;;;;15.40;11.80;;;;;27.51;42.99;99941.28;5095158;28;8872;-60
2023/06/11 08:19:07;;;;;;;;;14.40;13.40;;;;;27.55;43.50;99946.06;5095531;28;8818;-60
2023/06/11 08:21:35;;;;;;;;;16.20;16.20;;;;;27.60;42.51;99940.75;5095578;28;8837;-60
2023/06/11 08:24:03;;;;;;;;;17.20;16.00;;;;;27.63;42.66;99934.78;5094908;28;8848;-60
2023/06/11 08:26:31;;;;;;;;;18.40;15.00;;;;;27.69;42.23;99935.78;5095633;28;9531;-60
2023/06/11 08:28:59;;;;;;;;;19.40;17.60;;;;;27.70;42.42;99935.53;5094540;28;8872;-59
2023/06/11 08:31:28;;;;;;;;;17.60;16.60;;;;;27.75;42.72;99935.72;5095300;28;8842;-60
2023/06/11 08:33:55;;;;;;;;;10.60;10.20;;;;;27.79;41.81;99928.72;5095291;28;8842;-59
2023/06/11 08:36:23;;;;;;;;;19.00;17.40;;;;;27.85;41.81;99930.50;5095655;28;8861;-60
2023/06/11 08:38:51;;;;;;;;;16.00;16.00;;;;;27.90;41.67;99933.38;5094847;28;8829;-60
2023/06/11 08:41:19;;;;;;;;;15.20;14.00;;;;;27.98;41.65;99932.22;5095247;28;8830;-59
2023/06/11 08:43:47;;;;;;;;;16.00;15.60;;;;;28.07;41.80;99939.84;5095332;28;8841;-60
2023/06/11 08:46:15;;;;;;;;;14.60;14.60;;;;;28.16;41.61;99926.66;5095458;28;8830;-60
2023/06/11 08:48:43;;;;;;;;;15.20;15.00;;;;;28.26;41.46;99935.97;5094903;28;8888;-60
2023/06/11 08:51:11;;;;;;;;;14.60;14.40;;;;;28.37;41.03;99929.69;5095032;28;8989;-59
2023/06/11 08:53:40;;;;;;;;;14.60;14.40;;;;;28.51;40.95;99941.28;5095455;28;8818;-59
2023/06/11 08:56:08;;;;;;;;;16.20;15.40;;;;;28.54;41.09;99935.31;5094745;28;8833;-60
2023/06/11 08:58:36;;;;;;;;;18.00;17.40;;;;;28.65;40.36;99934.47;5093811;28;8899;-60
2023/06/11 09:01:06;;;;;;;;;9.00;8.60;;;;;28.77;40.65;99936.16;5093416;28;8944;-60
2023/06/11 09:03:34;;;;;;;;;18.80;18.20;;;;;28.89;40.50;99931.50;5094133;28;8967;-60
2023/06/11 09:06:02;;;;;;;;;17.60;17.60;;;;;28.95;40.40;99930.56;5093823;28;8806;-60
2023/06/11 09:08:31;;;;;;;;;16.00;15.40;;;;;29.02;40.28;99933.16;5093804;28;9541;-60
2023/06/11 09:10:59;;;;;;;;;13.60;13.20;;;;;29.03;40.17;99929.34;5093915;28;9533;-60
2023/06/11 09:13:27;;;;;;;;;16.80;16.00;;;;;29.09;39.74;99923.75;5094203;28;8833;-60
2023/06/11 09:15:55;;;;;;;;;20.20;18.20;;;;;29.14;39.89;99923.03;5094341;28;8826;-60
2023/06/11 09:18:25;;;;;;;;;16.20;15.00;;;;;29.21;39.95;99926.47;5094589;28;8971;-60
2023/06/11 09:20:53;;;;;;;;;20.00;19.00;;;;;29.30;39.82;99922.25;5094349;28;8922;-60
2023/06/11 09:23:21;;;;;;;;;18.80;17.80;;;;;29.42;39.45;99928.56;5097284;28;8822;-60
2023/06/11 09:25:49;;;;;;;;;18.40;18.00;;;;;29.56;39.43;99925.31;5098706;28;8829;-60
2023/06/11 09:28:17;;;;;;;;;16.00;16.00;;;;;29.67;39.35;99932.69;5098553;28;8826;-60
2023/06/11 09:30:45;;;;;;;;;20.20;19.00;;;;;29.79;38.89;99927.94;5098485;28;8988;-60
2023/06/11 09:33:13;;;;;;;;;13.00;13.00;;;;;29.89;38.92;99930.88;5098325;28;8866;-60
2023/06/11 09:35:45;;;;;;;;;19.00;18.80;;;;;29.97;38.79;99926.91;5097914;28;8833;-60
2023/06/11 09:38:14;;;;;;;;;15.80;15.60;;;;;30.07;38.38;99924.34;5098272;28;8834;-59
2023/06/11 09:40:41;;;;;;;;;16.80;16.80;;;;;30.09;38.27;99930.47;5097587;28;8861;-60
2023/06/11 09:43:09;;;;;;;;;19.40;18.00;;;;;30.17;37.98;99925.38;5098016;28;8837;-60
2023/06/11 09:45:37;;;;;;;;;16.00;16.00;;;;;30.34;37.95;99923.47;5097140;28;8825;-60
2023/06/11 09:48:05;;;;;;;;;14.00;14.00;;;;;30.51;37.83;99928.97;5096853;28;8907;-60
2023/06/11 09:50:33;;;;;;;;;22.40;20.60;;;;;30.61;37.60;99927.22;5097800;28;8883;-59
2023/06/11 09:53:03;;;;;;;;;19.60;17.40;;;;;30.62;37.57;99928.91;5097644;28;8856;-60
2023/06/11 09:55:31;;;;;;;;;18.20;17.40;;;;;30.66;37.68;99919.06;5097726;28;8826;-60
2023/06/11 09:57:59;;;;;;;;;19.80;17.00;;;;;30.76;37.52;99916.47;5098157;28;8860;-60
2023/06/11 10:00:27;;;;;;;;;15.40;15.20;;;;;30.99;36.85;99916.25;5097775;28;8968;-60
2023/06/11 10:02:56;;;;;;;;;16.40;16.00;;;;;31.23;36.50;99913.03;5097852;28;8872;-60
2023/06/11 10:05:26;;;;;;;;;16.00;16.00;;;;;31.52;35.73;99908.13;5097604;28;8846;-60
2023/06/11 10:07:55;;;;;;;;;18.20;17.40;;;;;31.81;35.79;99909.59;5096975;28;8829;-59
2023/06/11 10:10:22;;;;;;;;;18.00;17.00;;;;;32.05;35.33;99917.28;5097228;28;9542;-60
2023/06/11 10:12:51;;;;;;;;;14.20;13.00;;;;;32.38;34.91;99914.28;5096064;28;8842;-60
2023/06/11 10:15:19;;;;;;;;;16.40;16.00;;;;;32.69;34.12;99918.13;5096279;28;8837;-60
2023/06/11 10:17:46;;;;;;;;;19.20;18.80;;;;;32.77;34.65;99924.00;5096340;28;8852;-60
2023/06/11 10:20:15;;;;;;;;;16.20;15.40;;;;;32.72;34.64;99914.81;5096931;28;8925;-60
2023/06/11 10:22:43;;;;;;;;;16.20;16.00;;;;;32.96;34.67;99918.84;5096823;28;8923;-60
2023/06/11 10:25:14;;;;;;;;;15.20;14.20;;;;;32.79;34.07;99919.06;5096975;28;8930;-60
2023/06/11 10:27:42;;;;;;;;;14.80;13.80;;;;;32.84;34.35;99912.72;5097129;28;8833;-59
2023/06/11 10:30:13;;;;;;;;;15.80;15.40;;;;;32.81;34.37;99916.00;5096936;28;8830;-60
2023/06/11 10:32:41;;;;;;;;;17.20;16.20;;;;;32.51;34.58;99916.59;5097030;28;8846;-60
2023/06/11 10:35:10;;;;;;;;;19.00;17.20;;;;;32.14;35.60;99918.47;5095793;28;8960;-59
2023/06/11 10:37:38;;;;;;;;;17.40;16.20;;;;;32.53;34.62;99914.41;5096860;28;9523;-59
2023/06/11 10:40:07;;;;;;;;;16.20;14.40;;;;;32.72;34.92;99914.81;5096633;28;8834;-60
2023/06/11 10:42:35;;;;;;;;;14.20;13.60;;;;;33.08;34.28;99916.72;5096036;28;8830;-59
2023/06/11 10:45:05;;;;;;;;;17.20;15.80;;;;;33.10;34.54;99920.88;5097494;28;8810;-60
2023/06/11 10:47:33;;;;;;;;;12.20;12.20;;;;;32.69;34.72;99918.13;5095694;28;8871;-60
2023/06/11 10:50:01;;;;;;;;;15.40;14.80;;;;;32.33;35.40;99918.94;5096766;28;8893;-60
2023/06/11 10:52:29;;;;;;;;;13.60;13.40;;;;;32.07;35.52;99917.84;5096168;28;8850;-60
2023/06/11 10:54:57;;;;;;;;;15.80;15.80;;;;;31.86;35.53;99909.66;5095404;28;8838;-59
2023/06/11 10:57:25;;;;;;;;;16.60;15.80;;;;;32.51;35.24;99910.25;5095847;28;8865;-60
2023/06/11 10:59:53;;;;;;;;;16.00;16.00;;;;;32.84;35.01;99915.50;5096515;28;8850;-60
2023/06/11 11:02:24;;;;;;;;;15.20;14.00;;;;;32.65;34.70;99908.69;5096831;28;8837;-60
2023/06/11 11:04:53;;;;;;;;;11.60;11.60;;;;;33.06;33.98;99913.41;5095816;28;8842;-60
2023/06/11 11:07:24;;;;;;;;;18.20;16.40;;;;;33.79;33.80;99902.13;5096023;28;8850;-60
2023/06/11 11:09:53;;;;;;;;;13.60;13.00;;;;;34.58;32.92;99901.34;5095866;28;8834;-59
2023/06/11 11:12:23;;;;;;;;;13.00;12.60;;;;;35.17;31.46;99904.28;5096090;28;8952;-59
2023/06/11 11:14:51;;;;;;;;;16.80;16.20;;;;;35.73;31.02;99902.97;5095750;28;8914;-59
2023/06/11 11:17:19;;;;;;;;;18.00;16.00;;;;;36.34;30.56;99897.53;5095670;28;8825;-59
2023/06/11 11:19:47;;;;;;;;;17.00;16.40;;;;;36.89;29.76;99897.03;5095873;28;8902;-59
2023/06/11 11:22:16;;;;;;;;;17.60;17.00;;;;;37.35;29.36;99891.78;5095699;28;8956;-59
2023/06/11 11:24:46;;;;;;;;;17.40;16.40;;;;;37.71;29.24;99893.00;5095460;28;8926;-59
2023/06/11 11:27:14;;;;;;;;;14.20;13.80;;;;;37.93;28.96;99885.69;5095773;28;8822;-59
2023/06/11 11:29:42;;;;;;;;;17.80;15.40;;;;;38.20;28.35;99890.56;5096361;28;8825;-59